KPIR/PIR METAR and TAF weather

Enter ICAO airport designator
Station Type Date Time Source
KPIR METAR 2020/07/05 15:53 UTC NOAA

KPIR 051553Z AUTO 10SM SCT120 27/19 A2993 RMK AO2 SLP120 T02720194


Station Type Date Time Source
KPIR Decoded METAR 2020/07/05 15:53 UTC NOAA

PIERRE REGIONAL AIRPORT, SD, United States (KPIR) 44-23N 100-17W 526M
Jul 05, 2020 - 11:53 AM EDT / 2020.07.05 1553 UTC
Visibility: 10 mile(s):0
Sky conditions: partly cloudy
Temperature: 81.0 F (27.2 C)
Dew Point: 66.9 F (19.4 C)
Relative Humidity: 62%
Pressure (altimeter): 29.93 in. Hg (1013 hPa)
ob: KPIR 051553Z AUTO 10SM SCT120 27/19 A2993 RMK AO2 SLP120 T02720194
cycle: 16

Station Type Date Time Source
KPIR TAF 2020/07/05 15:30 UTC NOAA

TAF
AMD KPIR 051528Z 0515/0612 06008KT P6SM SKC
FM060000 09013G23KT P6SM VCSH FEW200
FM060600 02006KT P6SM BKN180
FM061100 04005KT P6SM SCT180

Example: see airport list